From 06/04/2019 02:00 to 06/18/2019 17:00

Date STAGE [FT] FLOW [CFS] PRECIPITATION INCREMENT [IN] AIR TEMPERATURE [DEGF] PRECIPITATION TOTAL [IN]
06/18/2019 12:00 3.85 736.8 -- 68.8 --
06/18/2019 11:00 3.85 736.8 -- 67.6 --
06/18/2019 10:00 3.85 736.8 -- 65.0 --
06/18/2019 09:00 3.85 736.8 -- 61.2 --
06/18/2019 08:00 3.85 736.8 -- 58.4 --
06/18/2019 07:00 3.85 736.8 -- 56.7 --
06/18/2019 06:00 3.85 736.8 -- 55.2 --
06/18/2019 05:00 3.85 736.8 -- 54.6 --
06/18/2019 04:00 3.86 741.0 -- 53.7 --
06/18/2019 03:00 3.86 741.0 -- 53.7 --
06/18/2019 02:00 3.86 741.0 -- 54.5 --
06/18/2019 01:00 3.86 741.0 -- 55.6 --
06/18/2019 00:00 3.86 741.0 -- 57.2 --
06/17/2019 23:00 3.86 741.0 -- 59.7 --
06/17/2019 22:00 3.87 745.3 -- 64.2 --
06/17/2019 21:00 3.87 745.3 -- 70.2 --
06/17/2019 20:00 3.88 749.5 -- 75.5 --
06/17/2019 19:00 3.88 749.5 -- 77.0 --
06/17/2019 18:00 3.88 749.5 -- 77.8 --
06/17/2019 17:00 3.86 741.0 -- 77.2 --
06/17/2019 16:00 3.87 745.3 -- 76.3 --
06/17/2019 15:00 3.87 745.3 -- 74.6 --
06/17/2019 14:00 3.87 745.3 -- 73.4 --
06/17/2019 13:00 3.87 745.3 -- 71.7 --
06/17/2019 12:00 3.86 741.0 -- 69.5 --
06/17/2019 11:00 3.86 741.0 -- 67.2 --
06/17/2019 10:00 3.86 741.0 -- 64.8 --
06/17/2019 09:00 3.86 741.0 -- 60.0 --
06/17/2019 08:00 3.85 736.8 -- 56.7 --
06/17/2019 07:00 3.86 741.0 -- 56.2 --
06/17/2019 06:00 3.85 736.8 -- 56.9 --
06/17/2019 05:00 3.85 736.8 -- 58.3 --
06/17/2019 04:00 3.85 736.8 -- 58.7 --
06/17/2019 03:00 3.85 736.8 -- 60.7 --
06/17/2019 02:00 3.85 736.8 -- 61.7 --
06/17/2019 01:00 3.85 736.8 -- 62.4 --
06/17/2019 00:00 3.85 736.8 -- 63.2 --
06/16/2019 23:00 3.85 736.8 -- 63.6 --
06/16/2019 22:00 3.85 736.8 -- 64.0 --
06/16/2019 21:00 3.84 732.6 -- 65.1 --
06/16/2019 20:00 3.84 732.6 -- 66.0 --
06/16/2019 19:00 3.84 732.6 -- 66.3 --
06/16/2019 18:00 3.84 732.6 -- 66.7 --
06/16/2019 17:00 3.83 728.5 -- 67.5 --
06/16/2019 16:00 3.83 728.5 -- 67.0 --
06/16/2019 15:00 3.83 728.5 -- 66.4 --
06/16/2019 14:00 3.83 728.5 -- 66.7 --
06/16/2019 13:00 3.83 728.5 -- 68.6 --
06/16/2019 12:00 3.83 728.5 -- 68.9 --
06/16/2019 11:00 3.83 728.5 -- 68.6 --
06/16/2019 10:00 3.83 728.5 -- 68.5 --
06/16/2019 09:00 3.83 728.5 -- 67.8 --
06/16/2019 08:00 3.83 728.5 -- 66.8 --
06/16/2019 07:00 3.83 728.5 -- 66.8 --
06/16/2019 06:00 3.83 728.5 -- 67.5 --
06/16/2019 05:00 3.82 724.3 -- 66.8 --
06/16/2019 04:00 3.83 728.5 -- 66.7 --
06/16/2019 03:00 3.82 724.3 -- 68.4 --
06/16/2019 02:00 3.81 720.1 -- 70.6 --
06/16/2019 01:00 3.81 720.1 -- 71.2 --
06/16/2019 00:00 3.81 720.1 -- 71.8 --
06/15/2019 23:00 3.81 720.1 -- 72.1 --
06/15/2019 22:00 3.81 720.1 -- 72.7 --
06/15/2019 21:00 3.81 720.1 -- 74.3 --
06/15/2019 20:00 3.81 720.1 -- 76.4 --
06/15/2019 19:00 3.81 720.1 -- 78.2 --
06/15/2019 18:00 3.81 720.1 -- 78.9 --
06/15/2019 17:00 3.80 716.0 -- 78.3 --
06/15/2019 16:00 3.80 716.0 -- 77.2 --
06/15/2019 15:00 3.78 707.9 -- 75.9 --
06/15/2019 14:00 3.77 703.9 -- 71.9 --
06/15/2019 13:00 3.74 691.9 -- 71.7 --
06/15/2019 12:00 3.70 676.0 -- 67.8 --
06/15/2019 11:00 4.05 820.9 -- 64.0 --
06/15/2019 10:00 4.92 1251.9 -- 63.5 --
06/15/2019 09:00 4.92 1251.9 -- 56.4 --
06/15/2019 08:00 4.92 1251.9 -- 51.9 --
06/15/2019 07:00 4.93 1257.8 -- 49.8 --
06/15/2019 06:00 4.93 1257.8 -- 49.1 --
06/15/2019 05:00 4.94 1263.8 -- 50.8 --
06/15/2019 04:00 4.95 1269.8 -- 53.5 --
06/15/2019 03:00 4.96 1275.8 -- 54.0 --
06/15/2019 02:00 4.97 1281.8 -- 54.6 --
06/15/2019 01:00 4.97 1281.8 -- 55.0 --
06/15/2019 00:00 4.98 1287.9 -- 57.7 --
06/14/2019 23:00 4.99 1293.9 -- 59.2 --
06/14/2019 22:00 5.00 1300.0 -- 60.2 --
06/14/2019 21:00 5.00 1300.0 -- 62.3 --
06/14/2019 20:00 5.00 1300.0 -- 63.7 --
06/14/2019 19:00 5.01 1305.9 -- 63.1 --
06/14/2019 18:00 5.01 1305.9 -- 64.3 --
06/14/2019 17:00 5.01 1305.9 -- 62.4 --
06/14/2019 16:00 5.01 1305.9 -- 66.8 --
06/14/2019 15:00 5.01 1305.9 -- 65.8 --
06/14/2019 14:00 5.02 1311.7 -- 66.1 --
06/14/2019 13:00 5.02 1311.7 -- 64.0 --
06/14/2019 12:00 5.02 1311.7 -- 59.9 --
06/14/2019 11:00 5.03 1317.6 -- 59.3 --
06/14/2019 10:00 5.03 1317.6 -- 56.5 --
06/14/2019 09:00 5.03 1317.6 -- 54.8 --
06/14/2019 08:00 5.03 1317.6 -- 52.6 --
06/14/2019 07:00 5.04 1323.5 -- 50.3 --
06/14/2019 06:00 5.04 1323.5 -- 49.7 --
06/14/2019 05:00 5.04 1323.5 -- 49.4 --
06/14/2019 04:00 5.05 1329.5 -- 49.8 --
06/14/2019 03:00 5.05 1329.5 -- 47.2 --
06/14/2019 02:00 5.05 1329.5 -- 47.9 --
06/14/2019 01:00 5.06 1335.4 -- 48.9 --
06/14/2019 00:00 5.06 1335.4 -- 50.6 --
06/13/2019 23:00 5.07 1341.3 -- 51.7 --
06/13/2019 22:00 5.07 1341.3 -- 51.3 --
06/13/2019 21:00 5.07 1341.3 -- 50.9 --
06/13/2019 20:00 5.08 1347.3 -- 51.3 --
06/13/2019 19:00 5.08 1347.3 -- 51.2 --
06/13/2019 18:00 5.07 1341.3 -- 50.6 --
06/13/2019 17:00 5.07 1341.3 -- 51.3 --
06/13/2019 16:00 5.07 1341.3 -- 51.5 --
06/13/2019 15:00 5.08 1347.3 -- 52.4 --
06/13/2019 14:00 5.07 1341.3 -- 55.1 --
06/13/2019 13:00 5.08 1347.3 -- 56.6 --
06/13/2019 12:00 5.09 1353.3 -- 56.1 --
06/13/2019 11:00 5.09 1353.3 -- 56.7 --
06/13/2019 10:00 5.09 1353.3 -- 57.5 --
06/13/2019 09:00 5.10 1359.3 -- 56.8 --
06/13/2019 08:00 5.10 1359.3 -- 54.0 --
06/13/2019 07:00 5.10 1359.3 -- 51.9 --
06/13/2019 06:00 5.11 1365.3 -- 51.7 --
06/13/2019 05:00 5.11 1365.3 -- 52.5 --
06/13/2019 04:00 5.11 1365.3 -- 52.0 --
06/13/2019 03:00 5.12 1371.3 -- 52.7 --
06/13/2019 02:00 5.12 1371.3 -- 54.4 --
06/13/2019 01:00 5.13 1377.3 -- 56.6 --
06/13/2019 00:00 5.13 1377.3 -- 58.7 --
06/12/2019 23:00 5.14 1383.4 -- 60.9 --
06/12/2019 22:00 5.14 1383.4 -- 65.9 --
06/12/2019 21:00 5.14 1383.4 -- 70.3 --
06/12/2019 20:00 5.14 1383.4 -- 74.2 --
06/12/2019 19:00 5.15 1389.5 -- 75.1 --
06/12/2019 18:00 5.15 1389.5 -- 74.9 --
06/12/2019 17:00 5.15 1389.5 -- 74.2 --
06/12/2019 16:00 5.15 1389.5 -- 73.6 --
06/12/2019 15:00 5.16 1395.5 -- 72.2 --
06/12/2019 14:00 5.16 1395.5 -- 71.2 --
06/12/2019 13:00 5.17 1401.6 -- 70.2 --
06/12/2019 12:00 5.19 1413.9 -- 68.5 --
06/12/2019 11:00 5.20 1420.0 -- 67.7 --
06/12/2019 10:00 4.50 1021.4 -- 63.9 --
06/12/2019 09:00 4.48 1011.8 -- 54.7 --
06/12/2019 08:00 4.47 1007.1 -- 53.8 --
06/12/2019 07:00 4.46 1002.3 -- 48.6 --
06/12/2019 06:00 4.46 1002.3 -- 47.9 --
06/12/2019 05:00 4.45 997.6 -- 50.0 --
06/12/2019 04:00 4.44 992.8 -- 52.1 --
06/12/2019 03:00 4.43 988.1 -- 55.5 --
06/12/2019 02:00 4.43 988.1 -- 57.1 --
06/12/2019 01:00 4.41 978.7 -- 56.1 --
06/12/2019 00:00 4.40 974.0 -- 59.5 --
06/11/2019 23:00 4.40 974.0 -- 61.3 --
06/11/2019 22:00 4.39 969.5 -- 59.6 --
06/11/2019 21:00 4.38 964.9 -- 61.3 --
06/11/2019 20:00 4.38 964.9 -- 64.8 --
06/11/2019 19:00 4.38 964.9 -- 67.1 --
06/11/2019 18:00 4.37 960.4 -- 68.7 --
06/11/2019 17:00 4.34 946.9 -- 70.3 --
06/11/2019 16:00 4.34 946.9 -- 68.9 --
06/11/2019 15:00 4.33 942.4 -- 69.7 --
06/11/2019 14:00 4.33 942.4 -- 66.4 --
06/11/2019 13:00 4.33 942.4 -- 64.7 --
06/11/2019 12:00 4.34 946.9 -- 64.1 --
06/11/2019 11:00 3.59 634.1 -- 63.5 --
06/11/2019 10:00 3.59 634.1 -- 62.4 --
06/11/2019 09:00 3.58 630.3 -- 61.9 --
06/11/2019 08:00 3.54 615.1 -- 61.5 --
06/11/2019 07:00 3.53 611.3 -- 60.8 --
06/11/2019 06:00 3.52 607.5 -- 59.6 --
06/11/2019 05:00 3.51 603.7 -- 59.4 --
06/11/2019 04:00 3.49 596.3 -- 59.5 --
06/11/2019 03:00 3.48 592.7 -- 60.0 --
06/11/2019 02:00 3.48 592.7 -- 61.4 --
06/11/2019 01:00 3.47 589.1 -- 62.8 --
06/11/2019 00:00 3.48 592.7 -- 63.2 --
06/10/2019 23:00 3.48 592.7 -- 64.2 --
06/10/2019 22:00 3.48 592.7 -- 66.1 --
06/10/2019 21:00 3.47 589.1 -- 70.5 --
06/10/2019 20:00 3.47 589.1 -- 75.8 --
06/10/2019 19:00 3.48 592.7 -- 78.5 --
06/10/2019 18:00 3.48 592.7 -- 80.9 --
06/10/2019 17:00 3.48 592.7 -- 80.9 --
06/10/2019 16:00 3.49 596.3 -- 80.3 --
06/10/2019 15:00 3.49 596.3 -- 81.3 --
06/10/2019 14:00 3.49 596.3 -- 81.0 --
06/10/2019 13:00 3.48 592.7 -- 79.8 --
06/10/2019 12:00 3.48 592.7 -- 79.0 --
06/10/2019 11:00 3.48 592.7 -- 74.4 --
06/10/2019 10:00 3.48 592.7 -- 69.7 --
06/10/2019 09:00 3.48 592.7 -- 64.5 --
06/10/2019 08:00 3.47 589.1 -- 59.3 --
06/10/2019 07:00 3.47 589.1 -- 54.1 --
06/10/2019 06:00 3.47 589.1 -- 53.1 --
06/10/2019 05:00 3.47 589.1 -- 53.7 --
06/10/2019 04:00 3.46 585.5 -- 53.6 --
06/10/2019 03:00 3.46 585.5 -- 54.7 --
06/10/2019 02:00 3.46 585.5 -- 55.9 --
06/10/2019 01:00 3.46 585.5 -- 57.3 --
06/10/2019 00:00 3.46 585.5 -- 59.2 --
06/09/2019 23:00 3.46 585.5 -- 61.9 --
06/09/2019 22:00 3.46 585.5 -- 65.9 --
06/09/2019 21:00 3.46 585.5 -- 72.1 --
06/09/2019 20:00 3.46 585.5 -- 77.9 --
06/09/2019 19:00 3.46 585.5 -- 79.7 --
06/09/2019 18:00 3.46 585.5 -- 80.0 --
06/09/2019 17:00 3.45 581.9 -- 79.9 --
06/09/2019 16:00 3.44 578.3 -- 79.1 --
06/09/2019 15:00 3.42 571.1 -- 78.2 --
06/09/2019 14:00 3.41 567.5 -- 75.9 --
06/09/2019 13:00 4.18 876.3 -- 74.0 --
06/09/2019 12:00 4.18 876.3 -- 71.9 --
06/09/2019 11:00 4.18 876.3 -- 68.9 --
06/09/2019 10:00 4.18 876.3 -- 64.1 --
06/09/2019 09:00 4.18 876.3 -- 56.5 --
06/09/2019 08:00 4.18 876.3 -- 50.3 --
06/09/2019 07:00 4.18 876.3 -- 46.3 --
06/09/2019 06:00 4.18 876.3 -- 45.1 --
06/09/2019 05:00 4.18 876.3 -- 45.9 --
06/09/2019 04:00 4.19 880.7 -- 47.0 --
06/09/2019 03:00 4.19 880.7 -- 48.5 --
06/09/2019 02:00 4.19 880.7 -- 49.4 --
06/09/2019 01:00 4.19 880.7 -- 50.8 --
06/09/2019 00:00 4.19 880.7 -- 52.9 --
06/08/2019 23:00 4.19 880.7 -- 56.1 --
06/08/2019 22:00 4.19 880.7 -- 61.4 --
06/08/2019 21:00 4.19 880.7 -- 67.9 --
06/08/2019 20:00 4.19 880.7 -- 73.3 --
06/08/2019 19:00 4.19 880.7 -- 75.5 --
06/08/2019 18:00 4.19 880.7 -- 77.4 --
06/08/2019 17:00 4.19 880.7 -- 77.7 --
06/08/2019 16:00 4.18 876.3 -- 77.3 --
06/08/2019 15:00 4.17 872.0 -- 76.6 --
06/08/2019 14:00 4.16 867.7 -- 75.4 --
06/08/2019 13:00 4.17 872.0 -- 73.7 --
06/08/2019 12:00 4.87 1221.8 -- 70.4 --
06/08/2019 11:00 4.88 1227.9 -- 68.4 --
06/08/2019 10:00 4.88 1227.9 -- 65.4 --
06/08/2019 09:00 4.89 1233.9 -- 61.7 --
06/08/2019 08:00 4.89 1233.9 -- 55.9 --
06/08/2019 07:00 4.89 1233.9 -- 50.5 --
06/08/2019 06:00 4.90 1240.0 -- 50.0 --
06/08/2019 05:00 4.90 1240.0 -- 51.6 --
06/08/2019 04:00 4.91 1245.9 -- 53.5 --
06/08/2019 03:00 4.91 1245.9 -- 54.2 --
06/08/2019 02:00 4.91 1245.9 -- 55.5 --
06/08/2019 01:00 4.91 1245.9 -- 57.2 --
06/08/2019 00:00 4.92 1251.9 -- 59.4 --
06/07/2019 23:00 4.92 1251.9 -- 63.4 --
06/07/2019 22:00 4.93 1257.8 -- 66.4 --
06/07/2019 21:00 4.93 1257.8 -- 71.3 --
06/07/2019 20:00 4.94 1263.8 -- 76.1 --
06/07/2019 19:00 4.95 1269.8 -- 79.1 --
06/07/2019 18:00 4.95 1269.8 -- 79.3 --
06/07/2019 17:00 4.95 1269.8 -- 79.0 --
06/07/2019 16:00 4.94 1263.8 -- 76.9 --
06/07/2019 15:00 4.95 1269.8 -- 74.8 --
06/07/2019 14:00 4.95 1269.8 -- 73.4 --
06/07/2019 13:00 4.95 1269.8 -- 72.0 --
06/07/2019 12:00 4.95 1269.8 -- 71.1 --
06/07/2019 11:00 4.95 1269.8 -- 68.3 --
06/07/2019 10:00 4.95 1269.8 -- 64.2 --
06/07/2019 09:00 4.95 1269.8 -- 56.7 --
06/07/2019 08:00 4.95 1269.8 -- 52.3 --
06/07/2019 07:00 4.95 1269.8 -- 46.8 --
06/07/2019 06:00 4.95 1269.8 -- 45.5 --
06/07/2019 05:00 4.96 1275.8 -- 46.8 --
06/07/2019 04:00 4.96 1275.8 -- 48.1 --
06/07/2019 03:00 4.96 1275.8 -- 49.5 --
06/07/2019 02:00 4.95 1269.8 -- 51.2 --
06/07/2019 01:00 4.95 1269.8 -- 53.4 --
06/07/2019 00:00 4.95 1269.8 -- 55.1 --
06/06/2019 23:00 4.95 1269.8 -- 57.8 --
06/06/2019 22:00 4.95 1269.8 -- 60.7 --
06/06/2019 21:00 4.95 1269.8 -- 67.0 --
06/06/2019 20:00 4.95 1269.8 -- 68.6 --
06/06/2019 19:00 4.95 1269.8 -- 71.7 --
06/06/2019 18:00 4.95 1269.8 -- 75.9 --
06/06/2019 17:00 4.96 1275.8 -- 74.7 --
06/06/2019 16:00 4.96 1275.8 -- 74.5 --
06/06/2019 15:00 4.97 1281.8 -- 71.2 --
06/06/2019 14:00 4.99 1293.9 -- 69.3 --
06/06/2019 13:00 5.01 1305.9 -- 69.1 --
06/06/2019 12:00 4.12 850.5 -- 68.2 --
06/06/2019 11:00 4.05 820.9 -- 65.3 --
06/06/2019 10:00 4.04 816.7 -- 61.9 --
06/06/2019 09:00 4.04 816.7 -- 58.8 --
06/06/2019 08:00 4.04 816.7 -- 58.0 --
06/06/2019 07:00 4.03 812.5 -- 57.4 --
06/06/2019 06:00 4.03 812.5 -- 57.1 --
06/06/2019 05:00 4.02 808.3 -- 57.1 --
06/06/2019 04:00 4.02 808.3 -- 57.3 --
06/06/2019 03:00 4.02 808.3 -- 57.2 --
06/06/2019 02:00 4.01 804.2 -- 57.4 --
06/06/2019 01:00 4.01 804.2 -- 57.6 --
06/06/2019 00:00 3.99 795.7 -- 58.3 --
06/05/2019 23:00 3.98 791.5 -- 60.7 --
06/05/2019 22:00 3.98 791.5 -- 61.0 --
06/05/2019 21:00 3.98 791.5 -- 62.1 --
06/05/2019 20:00 3.97 787.3 -- 63.4 --
06/05/2019 19:00 3.98 791.5 -- 66.2 --
06/05/2019 18:00 3.98 791.5 -- 67.6 --
06/05/2019 17:00 3.98 791.5 -- 68.0 --
06/05/2019 16:00 3.99 795.7 -- 66.5 --
06/05/2019 15:00 3.99 795.7 -- 65.6 --
06/05/2019 14:00 3.98 791.5 -- 64.2 --
06/05/2019 13:00 3.98 791.5 -- 61.4 --
06/05/2019 12:00 3.98 791.5 -- 59.1 --
06/05/2019 11:00 3.98 791.5 -- 56.4 --
06/05/2019 10:00 3.98 791.5 -- 53.7 --
06/05/2019 09:00 3.98 791.5 -- 51.6 --
06/05/2019 08:00 3.98 791.5 -- 50.9 --
06/05/2019 07:00 3.98 791.5 -- 50.4 --
06/05/2019 06:00 3.98 791.5 -- 50.6 --
06/05/2019 05:00 3.98 791.5 -- 50.2 --
06/05/2019 04:00 3.98 791.5 -- 50.6 --
06/05/2019 03:00 3.99 795.7 -- 53.0 --
06/05/2019 02:00 3.99 795.7 -- 54.4 --
06/05/2019 01:00 4.00 800.0 -- 56.0 --
06/05/2019 00:00 4.00 800.0 -- 56.5 --
06/04/2019 23:00 4.01 804.2 -- 57.8 --
06/04/2019 22:00 4.01 804.2 -- 59.3 --
06/04/2019 21:00 4.00 800.0 -- 61.2 --
06/04/2019 20:00 4.01 804.2 -- 62.6 --
06/04/2019 19:00 4.01 804.2 -- 64.1 --
06/04/2019 18:00 4.02 808.3 -- 64.8 --
06/04/2019 17:00 4.02 808.3 -- 63.4 --
06/04/2019 16:00 4.03 812.5 -- 63.1 --
06/04/2019 15:00 4.03 812.5 -- 62.3 --
06/04/2019 14:00 4.04 816.7 -- 61.2 --
06/04/2019 13:00 4.04 816.7 -- 60.1 --
06/04/2019 12:00 -- -- -- -- --
06/04/2019 11:00 -- -- -- -- --
06/04/2019 10:00 -- -- -- -- --
06/04/2019 09:00 -- -- -- -- --
06/04/2019 08:00 -- -- -- -- --
06/04/2019 07:00 -- -- -- -- --
06/04/2019 06:00 -- -- -- -- --
06/04/2019 05:00 -- -- -- -- --
06/04/2019 04:00 -- -- -- -- --
06/04/2019 03:00 -- -- -- -- --
06/04/2019 02:00 -- -- -- -- --